Time;durP1;ratioP1;P1;durP2;ratioP2;P2;SDS_P1;SDS_P2;PMS_P1;PMS_P2;Temp;Humidity;BMP_temperature;BMP_pressure;BME280_temperature;BME280_humidity;BME280_pressure;Samples;Min_cycle;Max_cycle;Signal;HPM_P1;HPM_P2
2021/04/16 00:00:16;;;;;;;3.40;2.03;;;3.60;68.80;;;;;;5864037;40;20050;-70
2021/04/16 00:04:20;;;;;;;4.65;2.10;;;3.50;68.80;;;;;;5860061;40;20066;-69
2021/04/16 00:08:30;;;;;;;10.02;2.47;;;3.50;68.80;;;;;;5862597;40;20045;-69
2021/04/16 00:12:37;;;;;;;7.05;1.83;;;3.50;68.70;;;;;;5859293;40;20113;-69
2021/04/16 00:16:42;;;;;;;8.00;2.25;;;3.50;68.80;;;;;;5860710;40;20460;-68
2021/04/16 00:20:49;;;;;;;6.40;2.22;;;3.50;68.60;;;;;;5861838;40;20058;-70
2021/04/16 00:24:55;;;;;;;3.85;2.00;;;3.50;68.60;;;;;;5860500;40;20418;-69
2021/04/16 00:28:59;;;;;;;3.65;1.90;;;3.50;68.70;;;;;;5857517;40;20074;-69
2021/04/16 00:33:04;;;;;;;3.55;1.77;;;3.40;68.60;;;;;;5858810;40;20092;-69
2021/04/16 00:37:09;;;;;;;5.50;2.25;;;3.40;68.60;;;;;;5856470;40;20288;-69
2021/04/16 00:41:23;;;;;;;5.40;2.45;;;3.30;68.50;;;;;;5851032;40;20065;-69
2021/04/16 00:45:30;;;;;;;5.25;2.20;;;3.30;68.10;;;;;;5859320;40;20397;-69
2021/04/16 00:49:44;;;;;;;3.10;1.80;;;3.30;68.70;;;;;;5864696;40;20046;-69
2021/04/16 00:53:48;;;;;;;5.10;2.33;;;3.30;69.00;;;;;;5857770;40;20484;-69
2021/04/16 00:57:53;;;;;;;4.93;2.03;;;3.20;68.80;;;;;;5859402;40;20110;-69
2021/04/16 01:02:04;;;;;;;4.65;2.28;;;3.20;68.80;;;;;;5860773;40;20050;-69
2021/04/16 01:06:10;;;;;;;5.03;2.20;;;3.20;68.80;;;;;;5859085;40;20062;-69
2021/04/16 01:10:15;;;;;;;4.43;2.17;;;3.10;68.70;;;;;;5850299;40;20053;-69
2021/04/16 01:14:19;;;;;;;5.38;2.72;;;3.00;69.00;;;;;;5851127;40;20068;-69
2021/04/16 01:18:27;;;;;;;5.97;2.30;;;2.90;69.00;;;;;;5860557;40;20872;-69
2021/04/16 01:22:44;;;;;;;4.40;2.53;;;3.00;69.10;;;;;;5860981;40;20054;-69
2021/04/16 01:26:52;;;;;;;5.68;2.30;;;2.90;69.10;;;;;;5859334;40;20054;-68
2021/04/16 01:31:03;;;;;;;7.82;2.63;;;2.90;69.40;;;;;;5857828;40;20440;-69
2021/04/16 01:35:17;;;;;;;4.65;2.30;;;2.90;69.10;;;;;;5857222;40;20070;-69
2021/04/16 01:39:26;;;;;;;4.70;2.15;;;2.90;69.10;;;;;;5857307;40;20054;-70
2021/04/16 01:43:34;;;;;;;10.05;2.50;;;2.80;68.90;;;;;;5857789;40;20675;-70
2021/04/16 01:47:38;;;;;;;5.70;2.50;;;2.70;69.00;;;;;;5857907;40;20098;-70
2021/04/16 01:51:45;;;;;;;5.57;2.63;;;2.70;69.00;;;;;;5850641;40;20058;-69
2021/04/16 01:55:54;;;;;;;4.45;2.40;;;2.60;69.10;;;;;;5854600;40;20527;-68
2021/04/16 02:00:01;;;;;;;6.03;2.22;;;2.50;69.90;;;;;;5857513;40;20391;-68
2021/04/16 02:04:14;;;;;;;4.50;1.73;;;2.60;69.50;;;;;;5858112;40;20057;-69
2021/04/16 02:08:19;;;;;;;5.47;2.13;;;2.60;70.30;;;;;;5857160;40;20058;-69
2021/04/16 02:12:25;;;;;;;5.68;2.20;;;2.50;69.70;;;;;;5860413;40;20106;-69
2021/04/16 02:16:29;;;;;;;6.25;2.28;;;2.50;72.80;;;;;;5857943;40;20066;-69
2021/04/16 02:20:41;;;;;;;4.97;1.95;;;2.50;70.80;;;;;;5857532;40;20172;-69
2021/04/16 02:24:46;;;;;;;4.43;2.05;;;2.50;71.20;;;;;;5856710;40;20125;-69
2021/04/16 02:28:52;;;;;;;4.18;2.10;;;2.40;71.60;;;;;;5847287;40;20523;-68
2021/04/16 02:32:57;;;;;;;7.53;2.05;;;2.40;75.60;;;;;;5861440;40;20126;-69
2021/04/16 02:37:09;;;;;;;4.70;1.83;;;2.40;72.30;;;;;;5856354;40;20046;-69
2021/04/16 02:41:16;;;;;;;8.68;2.40;;;2.40;72.50;;;;;;5859828;40;20054;-68
2021/04/16 02:45:26;;;;;;;3.95;1.90;;;2.40;73.50;;;;;;5858315;40;20378;-69
2021/04/16 02:49:30;;;;;;;6.75;2.25;;;2.40;73.10;;;;;;5857059;40;20066;-69
2021/04/16 02:53:36;;;;;;;3.85;1.77;;;2.40;71.80;;;;;;5860070;40;20042;-69
2021/04/16 02:57:40;;;;;;;8.65;2.00;;;2.40;71.10;;;;;;5859385;40;20482;-69
2021/04/16 03:01:45;;;;;;;3.50;1.80;;;4.20;73.00;;;;;;5859096;40;20100;-69
2021/04/16 03:05:51;;;;;;;4.32;1.75;;;2.40;71.00;;;;;;5859930;40;20136;-68
2021/04/16 03:09:58;;;;;;;5.55;1.95;;;2.40;71.00;;;;;;5860856;40;20058;-69
2021/04/16 03:14:05;;;;;;;5.50;1.60;;;2.40;71.10;;;;;;5856275;40;20363;-69
2021/04/16 03:18:10;;;;;;;5.65;2.30;;;2.40;71.00;;;;;;5860112;40;20148;-69
2021/04/16 03:22:17;;;;;;;6.82;2.30;;;2.40;78.50;;;;;;5858748;40;20061;-69
2021/04/16 03:26:24;;;;;;;5.00;2.17;;;2.40;74.30;;;;;;5859635;40;20177;-69
2021/04/16 03:30:29;;;;;;;6.82;2.38;;;2.40;74.10;;;;;;5858396;40;20061;-69
2021/04/16 03:34:35;;;;;;;7.20;2.30;;;2.40;73.00;;;;;;5853136;40;20073;-70
2021/04/16 03:38:41;;;;;;;6.53;2.30;;;2.40;74.20;;;;;;5862895;40;20050;-70
2021/04/16 03:42:47;;;;;;;10.90;2.63;;;2.40;76.40;;;;;;5863742;40;20078;-69
2021/04/16 03:46:48;;;;;;;4.75;1.90;;;2.40;79.60;;;;;;5858023;40;20071;-69
2021/04/16 03:50:53;;;;;;;6.82;2.17;;;2.50;81.30;;;;;;5860243;40;20054;-69
2021/04/16 03:55:00;;;;;;;11.45;2.22;;;2.50;81.60;;;;;;5852546;40;20063;-69
2021/04/16 03:59:01;;;;;;;7.20;2.50;;;2.50;82.90;;;;;;5858398;40;20106;-70
2021/04/16 04:03:12;;;;;;;7.30;2.53;;;2.50;85.60;;;;;;5858020;40;20356;-69
2021/04/16 04:07:20;;;;;;;8.68;2.45;;;2.50;82.60;;;;;;5857551;40;20053;-69
2021/04/16 04:11:27;;;;;;;6.40;2.25;;;2.60;82.00;;;;;;5859271;40;20050;-70
2021/04/16 04:15:34;;;;;;;5.80;2.47;;;2.50;81.50;;;;;;5859378;40;20273;-69
2021/04/16 04:20:12;;;;;;;9.25;2.78;;;2.60;82.80;;;;;;5860029;40;20050;-69
2021/04/16 04:24:17;;;;;;;7.03;2.70;;;2.40;92.10;;;;;;5844975;40;20066;-68
2021/04/16 04:28:28;;;;;;;6.88;2.50;;;2.60;84.80;;;;;;5859547;40;20141;-69
2021/04/16 04:32:32;;;;;;;6.30;2.53;;;2.50;84.60;;;;;;5857371;40;20058;-69
2021/04/16 04:36:38;;;;;;;6.35;2.13;;;2.70;87.10;;;;;;5861214;40;20406;-69
2021/04/16 04:40:43;;;;;;;6.40;2.17;;;2.80;87.30;;;;;;5859620;40;20395;-69
2021/04/16 04:44:47;;;;;;;8.05;3.13;;;2.80;86.60;;;;;;5857780;40;20145;-69
2021/04/16 04:48:51;;;;;;;7.75;2.80;;;2.80;87.90;;;;;;5857717;40;20050;-69
2021/04/16 04:52:56;;;;;;;10.63;3.25;;;2.90;84.90;;;;;;5858140;40;20434;-69
2021/04/16 04:57:02;;;;;;;7.13;2.67;;;2.90;83.00;;;;;;5861843;40;20084;-68
2021/04/16 05:01:09;;;;;;;10.88;3.55;;;2.90;85.20;;;;;;5845680;40;20042;-69
2021/04/16 05:05:17;;;;;;;8.38;2.67;;;3.00;85.50;;;;;;5843016;40;20147;-69
2021/04/16 05:09:22;;;;;;;5.38;2.53;;;3.10;94.40;;;;;;5842342;40;20055;-69
2021/04/16 05:13:29;;;;;;;7.97;2.65;;;3.00;88.40;;;;;;5839981;40;20051;-69
2021/04/16 05:17:33;;;;;;;6.28;2.58;;;3.10;90.50;;;;;;5843950;40;20390;-69
2021/04/16 05:21:44;;;;;;;6.00;1.73;;;3.40;97.90;;;;;;5837054;40;20051;-69
2021/04/16 05:25:48;;;;;;;4.50;1.92;;;3.40;94.00;;;;;;5839189;40;20308;-69
2021/04/16 05:29:54;;;;;;;6.55;2.65;;;3.50;94.70;;;;;;5842722;40;20058;-69
2021/04/16 05:33:58;;;;;;;7.57;2.70;;;3.70;93.30;;;;;;5840212;40;20073;-69
2021/04/16 05:38:02;;;;;;;8.73;3.03;;;3.90;94.00;;;;;;5839105;40;20063;-66
2021/04/16 05:42:07;;;;;;;6.80;2.30;;;4.00;93.80;;;;;;5840007;40;20070;-66
2021/04/16 05:46:11;;;;;;;8.15;3.10;;;4.20;94.00;;;;;;5841151;40;20070;-71
2021/04/16 05:50:19;;;;;;;7.82;3.20;;;4.30;93.40;;;;;;5844414;40;20102;-71
2021/04/16 05:54:25;;;;;;;9.02;3.30;;;4.50;92.50;;;;;;5836704;40;20074;-71
2021/04/16 05:58:29;;;;;;;4.60;2.47;;;4.70;93.40;;;;;;5847121;40;20063;-72
2021/04/16 06:02:37;;;;;;;7.40;2.58;;;4.80;93.00;;;;;;5845788;40;20054;-71
2021/04/16 06:06:42;;;;;;;8.05;2.97;;;5.20;96.40;;;;;;5845553;40;20062;-72
2021/04/16 06:10:47;;;;;;;7.10;2.60;;;5.20;92.50;;;;;;5844172;40;20062;-71
2021/04/16 06:14:51;;;;;;;11.70;2.95;;;5.40;92.20;;;;;;5845413;40;20439;-72
2021/04/16 06:18:55;;;;;;;8.13;3.42;;;5.50;92.30;;;;;;5844036;40;20063;-72
2021/04/16 06:23:03;;;;;;;9.70;3.25;;;5.70;92.00;;;;;;5844797;40;20356;-72
2021/04/16 06:27:08;;;;;;;6.57;2.92;;;5.90;91.30;;;;;;5845990;40;20047;-72
2021/04/16 06:31:14;;;;;;;7.32;3.22;;;6.10;90.90;;;;;;5843456;40;20054;-71
2021/04/16 06:35:18;;;;;;;6.85;2.92;;;6.20;90.30;;;;;;5848452;40;20058;-72
2021/04/16 06:39:25;;;;;;;8.38;2.80;;;6.30;88.90;;;;;;5837286;40;20066;-72
2021/04/16 06:43:41;;;;;;;4.78;2.35;;;6.40;88.90;;;;;;5844824;40;20059;-73
2021/04/16 06:47:51;;;;;;;5.47;2.30;;;6.60;87.30;;;;;;5846463;40;20058;-72
2021/04/16 06:52:13;;;;;;;5.55;1.90;;;6.70;86.60;;;;;;5845020;40;20039;-72
2021/04/16 06:56:30;;;;;;;6.18;2.67;;;6.70;85.80;;;;;;5845336;40;20392;-72
2021/04/16 07:00:43;;;;;;;3.30;1.80;;;6.80;85.30;;;;;;5853774;40;20038;-72
2021/04/16 07:04:57;;;;;;;5.57;1.95;;;6.90;84.20;;;;;;5852275;40;20061;-72
2021/04/16 07:09:09;;;;;;;6.35;2.20;;;6.90;84.00;;;;;;5861771;40;20055;-72
2021/04/16 07:13:35;;;;;;;5.70;2.10;;;7.10;83.40;;;;;;5860768;40;20078;-72
2021/04/16 07:17:42;;;;;;;4.13;2.17;;;7.30;83.00;;;;;;5861522;40;20046;-73
2021/04/16 07:21:57;;;;;;;6.97;2.17;;;7.60;81.80;;;;;;5859959;40;20060;-72
2021/04/16 07:26:15;;;;;;;3.78;1.90;;;7.70;81.10;;;;;;5857207;40;20106;-72
2021/04/16 07:30:42;;;;;;;4.97;1.73;;;7.90;80.00;;;;;;5853786;40;20296;-72
2021/04/16 07:34:51;;;;;;;9.77;1.60;;;7.90;78.20;;;;;;5861839;40;20058;-72
2021/04/16 07:39:07;;;;;;;3.95;1.73;;;8.00;78.90;;;;;;5862757;40;20466;-72
2021/04/16 07:43:34;;;;;;;4.25;1.50;;;8.00;77.40;;;;;;5862150;40;20061;-67
2021/04/16 07:47:41;;;;;;;3.22;1.27;;;8.20;77.30;;;;;;5838250;40;20038;-67
2021/04/16 07:51:50;;;;;;;2.15;1.00;;;8.40;75.70;;;;;;5855624;40;20058;-67
2021/04/16 07:56:08;;;;;;;6.00;1.80;;;8.40;75.30;;;;;;5853527;40;20070;-67
2021/04/16 08:00:31;;;;;;;3.20;1.23;;;8.50;74.20;;;;;;5853572;40;20055;-66
2021/04/16 08:04:36;;;;;;;3.20;1.25;;;8.60;71.40;;;;;;5854195;40;20069;-67
2021/04/16 08:08:48;;;;;;;3.58;0.65;;;8.70;72.70;;;;;;5854377;40;20220;-67
2021/04/16 08:13:09;;;;;;;1.95;1.10;;;8.80;73.90;;;;;;5853331;40;20334;-65
2021/04/16 08:17:29;;;;;;;1.88;0.95;;;9.00;69.50;;;;;;5843329;40;20065;-67
2021/04/16 08:21:44;;;;;;;2.70;1.17;;;9.10;67.60;;;;;;5849316;40;22605;-66
2021/04/16 08:25:53;;;;;;;4.70;1.30;;;9.20;68.80;;;;;;5853709;40;20055;-66
2021/04/16 08:30:24;;;;;;;5.45;1.13;;;9.30;68.50;;;;;;5858037;40;20074;-67
2021/04/16 08:34:42;;;;;;;2.13;0.80;;;9.50;66.90;;;;;;5854618;40;20061;-67
2021/04/16 08:38:54;;;;;;;1.90;0.88;;;9.50;64.70;;;;;;5845672;40;20058;-67
2021/04/16 08:42:58;;;;;;;1.80;0.90;;;9.30;64.10;;;;;;5857355;40;20076;-68
2021/04/16 08:47:07;;;;;;;2.83;0.82;;;9.40;64.40;;;;;;5853276;40;20429;-68
2021/04/16 08:51:15;;;;;;;1.85;0.80;;;9.50;64.70;;;;;;5854989;40;20074;-70
2021/04/16 08:55:35;;;;;;;3.13;1.10;;;9.50;62.60;;;;;;5853473;40;20076;-67
2021/04/16 08:59:52;;;;;;;2.50;1.00;;;9.70;62.40;;;;;;5854478;40;20035;-67
2021/04/16 09:04:21;;;;;;;2.63;0.93;;;9.80;61.80;;;;;;5855720;40;20426;-68
2021/04/16 09:08:47;;;;;;;2.35;0.80;;;9.80;59.60;;;;;;5853862;40;20062;-68
2021/04/16 09:12:56;;;;;;;2.40;0.60;;;10.00;56.60;;;;;;5845998;40;20539;-68
2021/04/16 09:17:03;;;;;;;4.22;0.77;;;9.90;59.70;;;;;;5839985;40;20537;-67
2021/04/16 09:21:05;;;;;;;1.85;0.80;;;10.00;59.30;;;;;;5855759;40;20050;-66
2021/04/16 09:25:42;;;;;;;2.90;1.00;;;10.10;59.60;;;;;;5853999;40;20061;-68
2021/04/16 09:29:47;;;;;;;3.50;0.90;;;11.60;56.00;;;;;;5845651;40;20050;-67
2021/04/16 09:34:19;;;;;;;3.45;0.80;;;10.50;61.10;;;;;;5853147;40;20179;-68
2021/04/16 09:38:24;;;;;;;3.30;0.90;;;10.50;52.70;;;;;;5852952;40;20418;-67
2021/04/16 09:42:43;;;;;;;1.05;0.55;;;10.30;57.70;;;;;;5854471;40;20066;-69
2021/04/16 09:46:48;;;;;;;3.53;1.30;;;10.40;55.50;;;;;;5854327;40;20066;-68
2021/04/16 09:51:02;;;;;;;1.95;0.50;;;10.50;59.20;;;;;;5852182;40;20061;-68
2021/04/16 09:55:41;;;;;;;3.05;0.98;;;10.70;56.90;;;;;;5851866;40;20293;-66
2021/04/16 09:59:46;;;;;;;2.72;0.63;;;10.70;56.40;;;;;;5853019;40;20089;-68
2021/04/16 10:04:02;;;;;;;3.72;0.63;;;10.70;58.50;;;;;;5850140;40;20565;-66
2021/04/16 10:08:27;;;;;;;1.88;0.70;;;10.70;52.50;;;;;;5854184;40;20248;-68
2021/04/16 10:12:34;;;;;;;2.65;0.77;;;10.70;58.20;;;;;;5843357;40;20056;-68
2021/04/16 10:16:39;;;;;;;4.40;0.98;;;11.00;55.50;;;;;;5850009;40;20329;-68
2021/04/16 10:20:58;;;;;;;2.17;0.95;;;11.00;57.30;;;;;;5854370;40;20054;-68
2021/04/16 10:31:23;;;;;;;2.05;0.70;;;11.20;54.60;;;;;;5853341;40;20096;-68
2021/04/16 12:38:50;;;;;;;3.03;0.77;;;11.80;49.30;;;;;;5857685;40;20062;-68
2021/04/16 12:42:57;;;;;;;3.88;1.25;;;11.80;49.80;;;;;;5854857;40;20070;-68
2021/04/16 12:47:05;;;;;;;3.40;0.90;;;11.80;49.60;;;;;;5852836;40;20061;-68
2021/04/16 12:51:11;;;;;;;2.47;1.00;;;11.90;49.80;;;;;;5856788;40;20062;-68
2021/04/16 12:55:18;;;;;;;3.28;1.05;;;11.90;49.50;;;;;;5856826;40;20084;-69
2021/04/16 12:59:24;;;;;;;1.15;0.47;;;11.80;49.70;;;;;;5854514;40;20077;-68
2021/04/16 13:03:36;;;;;;;4.15;1.00;;;11.70;49.10;;;;;;5855366;40;20082;-68
2021/04/16 13:07:41;;;;;;;3.22;1.30;;;11.70;49.90;;;;;;5854555;40;20054;-69
2021/04/16 13:11:49;;;;;;;1.90;0.93;;;11.70;50.20;;;;;;5856679;40;20065;-68
2021/04/16 13:15:57;;;;;;;4.57;1.50;;;11.70;49.10;;;;;;5848770;40;20058;-68
2021/04/16 13:20:08;;;;;;;2.70;1.20;;;11.60;51.20;;;;;;5853396;40;20366;-69
2021/04/16 13:24:13;;;;;;;5.53;1.80;;;11.70;51.80;;;;;;5855639;40;20078;-69
2021/04/16 13:28:19;;;;;;;2.70;1.15;;;11.80;51.60;;;;;;5854622;40;20053;-68
2021/04/16 13:32:29;;;;;;;3.25;1.02;;;11.90;51.60;;;;;;5855860;40;20054;-68
2021/04/16 13:36:34;;;;;;;3.63;1.27;;;11.90;51.20;;;;;;5858573;40;20103;-69
2021/04/16 13:40:42;;;;;;;3.65;1.33;;;11.70;51.60;;;;;;5853550;40;20046;-69
2021/04/16 13:44:47;;;;;;;4.00;1.85;;;11.70;52.20;;;;;;5854797;40;20065;-68
2021/04/16 13:48:51;;;;;;;5.20;0.90;;;11.70;51.70;;;;;;5854237;40;20066;-68
2021/04/16 13:53:01;;;;;;;4.20;1.25;;;11.70;52.00;;;;;;5852478;40;20058;-68
2021/04/16 13:57:07;;;;;;;2.67;1.25;;;11.70;51.80;;;;;;5856199;40;20647;-69
2021/04/16 14:01:12;;;;;;;2.92;1.27;;;11.80;51.90;;;;;;5851217;40;20633;-68
2021/04/16 14:05:25;;;;;;;3.45;0.80;;;11.80;52.00;;;;;;5848926;40;20062;-68
2021/04/16 14:09:32;;;;;;;1.63;0.77;;;11.70;51.00;;;;;;5827320;40;22286;-68
2021/04/16 14:13:38;;;;;;;3.33;1.05;;;11.60;52.20;;;;;;5964056;23;20033;-68
2021/04/16 14:17:58;;;;;;;4.10;1.10;;;11.60;51.90;;;;;;5851074;40;20177;-68
2021/04/16 14:22:05;;;;;;;3.35;1.30;;;11.50;52.90;;;;;;5855836;40;20638;-68
2021/04/16 14:26:10;;;;;;;2.45;0.93;;;11.50;52.70;;;;;;5878888;40;20057;-68
2021/04/16 14:30:25;;;;;;;3.30;0.65;;;11.50;52.70;;;;;;5874300;40;20068;-68
2021/04/16 14:34:33;;;;;;;3.88;1.10;;;11.40;52.60;;;;;;5879599;40;20253;-68
2021/04/16 14:38:40;;;;;;;5.28;0.98;;;11.40;52.10;;;;;;5883352;40;20042;-69
2021/04/16 14:42:42;;;;;;;3.58;1.10;;;11.30;52.70;;;;;;5870120;40;20066;-68
2021/04/16 14:46:50;;;;;;;4.20;1.20;;;11.30;52.70;;;;;;5875870;40;20042;-68
2021/04/16 14:51:07;;;;;;;5.15;1.08;;;11.20;53.20;;;;;;5867481;40;20093;-69
2021/04/16 14:55:23;;;;;;;2.85;0.98;;;11.20;52.70;;;;;;5867715;40;20053;-68
2021/04/16 14:59:42;;;;;;;3.30;1.13;;;11.10;52.70;;;;;;5875936;40;20579;-69
2021/04/16 15:03:47;;;;;;;3.97;1.10;;;11.00;53.20;;;;;;5876740;40;20045;-68
2021/04/16 15:08:02;;;;;;;3.17;0.93;;;11.00;53.60;;;;;;5873153;40;20089;-68
2021/04/16 15:12:08;;;;;;;2.08;0.80;;;11.10;52.10;;;;;;5864609;40;20155;-68
2021/04/16 15:16:20;;;;;;;2.97;0.70;;;11.20;52.90;;;;;;5882118;40;20398;-69
2021/04/16 15:20:27;;;;;;;6.05;1.45;;;11.10;53.30;;;;;;5894111;40;20058;-68
2021/04/16 15:24:33;;;;;;;2.28;1.08;;;11.10;52.60;;;;;;5896751;40;20085;-68
2021/04/16 15:29:00;;;;;;;3.42;1.40;;;11.10;52.90;;;;;;5885334;40;20053;-68
2021/04/16 15:33:22;;;;;;;4.68;1.20;;;11.00;51.70;;;;;;5898787;40;20405;-67
2021/04/16 15:46:35;;;;;;;4.18;1.30;;;10.90;53.70;;;;;;5886151;40;20049;-69
2021/04/16 15:50:45;;;;;;;3.92;1.20;;;11.00;54.30;;;;;;5890964;40;20496;-68
2021/04/16 15:54:48;;;;;;;4.88;1.70;;;11.00;54.00;;;;;;5878772;40;20448;-68
2021/04/16 15:58:55;;;;;;;2.85;1.08;;;10.90;53.30;;;;;;5891514;40;20053;-68
2021/04/16 16:02:59;;;;;;;4.18;1.40;;;10.90;53.50;;;;;;5892840;40;20054;-67
2021/04/16 16:07:04;;;;;;;5.28;1.10;;;10.80;53.90;;;;;;5883822;40;20064;-68
2021/04/16 16:11:24;;;;;;;7.03;1.75;;;10.80;54.00;;;;;;5885082;40;20057;-68
2021/04/16 16:15:50;;;;;;;4.22;1.38;;;10.70;53.70;;;;;;5896634;40;20045;-68
2021/04/16 16:19:57;;;;;;;3.38;1.45;;;10.70;54.20;;;;;;5891797;40;20128;-68
2021/04/16 16:24:01;;;;;;;4.43;1.67;;;10.60;54.00;;;;;;5889575;40;20191;-68
2021/04/16 16:28:15;;;;;;;5.80;1.30;;;10.60;54.30;;;;;;5889650;40;20328;-69
2021/04/16 16:32:26;;;;;;;4.60;1.90;;;10.60;54.60;;;;;;5896603;40;20069;-68
2021/04/16 16:36:31;;;;;;;6.30;1.60;;;10.70;55.20;;;;;;5890127;40;20302;-68
2021/04/16 16:40:37;;;;;;;2.97;1.52;;;10.70;54.60;;;;;;5890038;40;20058;-67
2021/04/16 16:44:43;;;;;;;4.18;1.70;;;10.60;54.60;;;;;;5885891;40;20046;-69
2021/04/16 16:48:48;;;;;;;4.10;1.50;;;10.50;54.20;;;;;;5887981;40;20519;-68
2021/04/16 16:52:55;;;;;;;4.63;1.60;;;10.50;54.40;;;;;;5889079;40;20045;-67
2021/04/16 16:57:04;;;;;;;3.25;1.45;;;10.40;54.60;;;;;;5890053;40;20049;-68
2021/04/16 17:01:14;;;;;;;3.90;1.50;;;10.40;54.40;;;;;;5893117;40;20132;-68
2021/04/16 17:05:22;;;;;;;4.15;1.70;;;10.40;54.40;;;;;;5881286;40;20884;-67
2021/04/16 17:09:24;;;;;;;4.57;1.85;;;10.30;54.80;;;;;;5880595;40;20053;-68
2021/04/16 17:13:28;;;;;;;4.90;1.63;;;10.30;55.10;;;;;;5890150;40;20148;-68
2021/04/16 17:17:35;;;;;;;4.13;1.50;;;10.20;55.00;;;;;;5896028;40;20068;-68
2021/04/16 17:21:40;;;;;;;6.35;1.63;;;10.20;55.10;;;;;;5892422;40;20088;-67
2021/04/16 17:25:44;;;;;;;4.30;1.27;;;10.20;55.50;;;;;;5895378;40;20413;-68
2021/04/16 17:29:55;;;;;;;4.90;1.92;;;10.20;54.90;;;;;;5888205;40;20061;-68
2021/04/16 17:33:59;;;;;;;5.95;1.35;;;10.10;54.90;;;;;;5888388;40;20069;-68
2021/04/16 17:38:06;;;;;;;4.22;1.90;;;10.10;54.90;;;;;;5885096;40;20222;-68
2021/04/16 17:42:33;;;;;;;5.88;1.73;;;10.00;54.60;;;;;;5897126;40;20049;-68
2021/04/16 17:46:39;;;;;;;6.38;2.20;;;9.90;54.70;;;;;;5884632;40;20073;-67
2021/04/16 17:50:52;;;;;;;5.13;1.85;;;9.90;54.70;;;;;;5884509;40;20089;-68
2021/04/16 17:54:59;;;;;;;3.38;1.83;;;9.90;55.00;;;;;;5886213;40;20044;-68
2021/04/16 17:59:15;;;;;;;7.15;1.95;;;11.00;55.90;;;;;;5889379;40;20033;-68
2021/04/16 18:03:19;;;;;;;8.48;2.33;;;9.80;55.20;;;;;;5883446;40;20085;-68
2021/04/16 18:07:30;;;;;;;6.03;1.83;;;9.70;55.80;;;;;;5885926;40;20057;-68
2021/04/16 18:11:34;;;;;;;5.68;2.03;;;9.60;55.80;;;;;;5883149;40;20092;-68
2021/04/16 18:15:39;;;;;;;6.25;4.15;;;9.60;56.00;;;;;;5888776;40;20085;-68
2021/04/16 18:19:43;;;;;;;4.68;3.10;;;9.60;55.90;;;;;;5888607;40;20076;-68
2021/04/16 18:23:58;;;;;;;5.70;2.38;;;9.50;56.10;;;;;;5896728;40;20042;-68
2021/04/16 18:28:03;;;;;;;7.90;1.67;;;9.40;56.20;;;;;;5890629;40;20060;-67
2021/04/16 18:32:10;;;;;;;4.75;1.85;;;9.30;56.30;;;;;;5887759;40;20054;-68
2021/04/16 18:36:19;;;;;;;4.47;1.90;;;9.30;56.70;;;;;;5886036;40;20046;-68
2021/04/16 18:40:36;;;;;;;4.45;1.80;;;9.30;57.00;;;;;;5885765;40;20054;-68
2021/04/16 18:44:47;;;;;;;6.03;2.00;;;9.30;56.80;;;;;;5897139;40;20041;-68
2021/04/16 18:48:52;;;;;;;4.50;1.95;;;9.20;57.00;;;;;;5890330;40;20049;-68
2021/04/16 18:53:08;;;;;;;5.82;1.88;;;9.20;57.30;;;;;;5889941;40;20061;-72
2021/04/16 18:57:12;;;;;;;7.38;2.30;;;9.10;57.10;;;;;;5892623;40;20057;-71
2021/04/16 19:01:23;;;;;;;7.18;2.45;;;9.00;57.10;;;;;;5894847;40;20448;-70
2021/04/16 19:05:30;;;;;;;5.22;2.42;;;8.90;57.40;;;;;;5901617;40;20060;-71
2021/04/16 19:09:45;;;;;;;6.88;2.17;;;8.80;57.70;;;;;;5902350;40;20069;-71
2021/04/16 19:13:49;;;;;;;5.72;2.00;;;8.80;58.20;;;;;;5887899;40;20045;-70
2021/04/16 19:17:54;;;;;;;6.45;1.95;;;8.70;58.20;;;;;;5890874;40;20089;-71
2021/04/16 19:22:02;;;;;;;4.72;1.77;;;8.70;58.50;;;;;;5886406;40;20045;-71
2021/04/16 19:26:28;;;;;;;6.43;1.83;;;8.70;58.60;;;;;;5896186;40;20057;-71
2021/04/16 19:30:37;;;;;;;7.63;1.90;;;8.70;58.80;;;;;;5905824;40;20057;-71
2021/04/16 19:34:43;;;;;;;9.00;2.05;;;8.60;59.00;;;;;;5898176;40;20037;-71
2021/04/16 19:38:56;;;;;;;6.43;2.13;;;8.50;59.30;;;;;;5889772;40;20076;-71
2021/04/16 19:43:05;;;;;;;11.35;2.85;;;8.50;59.40;;;;;;5896783;40;20057;-71
2021/04/16 19:47:22;;;;;;;8.10;2.33;;;8.40;59.60;;;;;;5907500;40;20049;-71
2021/04/16 20:17:43;;;;;;;6.05;2.45;;;7.90;60.80;;;;;;5906874;40;20053;-70
2021/04/16 20:21:50;;;;;;;7.57;3.42;;;7.80;61.00;;;;;;5895825;40;20079;-71
2021/04/16 20:25:59;;;;;;;5.68;3.25;;;7.70;61.00;;;;;;5895787;40;20072;-71
2021/04/16 20:30:00;;;;;;;8.65;3.45;;;7.60;61.10;;;;;;5895487;40;20065;-70
2021/04/16 20:34:05;;;;;;;6.57;2.53;;;7.50;61.10;;;;;;5904270;40;20045;-71
2021/04/16 20:38:13;;;;;;;8.75;2.00;;;7.50;61.10;;;;;;5890606;40;20042;-71
2021/04/16 20:42:25;;;;;;;6.07;1.75;;;7.40;61.10;;;;;;5897425;40;20046;-70
2021/04/16 20:46:35;;;;;;;;;;;7.30;61.10;;;;;;5904347;40;20059;-70
2021/04/16 20:50:40;;;;;;;10.25;4.10;;;7.30;61.20;;;;;;5901757;40;19945;-70
2021/04/16 20:54:47;;;;;;;9.10;4.72;;;7.20;61.10;;;;;;5892393;40;20041;-71
2021/04/16 20:58:52;;;;;;;7.03;2.80;;;7.10;61.10;;;;;;5893379;40;20065;-70
2021/04/16 21:03:05;;;;;;;7.40;2.70;;;7.10;60.90;;;;;;5895165;40;20369;-70
2021/04/16 21:07:22;;;;;;;5.72;2.58;;;7.00;61.20;;;;;;5893593;40;20061;-71
2021/04/16 21:11:38;;;;;;;7.95;2.70;;;6.90;61.50;;;;;;5894289;40;20076;-71
2021/04/16 21:15:45;;;;;;;8.20;1.85;;;6.80;61.20;;;;;;5895672;40;20049;-71
2021/04/16 21:19:52;;;;;;;8.02;2.08;;;6.80;61.10;;;;;;5880359;40;20065;-71
2021/04/16 21:24:00;;;;;;;5.35;2.17;;;6.70;61.20;;;;;;5902955;40;20049;-70
2021/04/16 21:28:04;;;;;;;4.18;1.77;;;6.70;61.50;;;;;;5901229;40;20061;-71
2021/04/16 21:32:26;;;;;;;8.20;2.30;;;6.70;61.40;;;;;;5892788;40;20215;-70
2021/04/16 21:36:34;;;;;;;9.33;2.40;;;6.60;61.70;;;;;;5897440;40;20135;-70
2021/04/16 21:40:45;;;;;;;4.18;2.00;;;6.60;61.70;;;;;;5895261;40;20488;-71
2021/04/16 21:44:49;;;;;;;7.88;2.15;;;6.50;61.80;;;;;;5899958;40;20334;-71
2021/04/16 21:49:01;;;;;;;7.78;2.35;;;6.30;61.90;;;;;;5887435;40;20061;-71
2021/04/16 21:53:17;;;;;;;7.93;1.90;;;6.30;62.30;;;;;;5894294;40;20066;-71
2021/04/16 21:57:25;;;;;;;3.78;2.05;;;6.10;62.20;;;;;;5903772;40;20566;-70
2021/04/16 22:01:34;;;;;;;4.90;2.03;;;6.00;62.50;;;;;;5893124;40;20072;-70
2021/04/16 22:05:45;;;;;;;4.00;1.83;;;5.90;62.80;;;;;;5893918;40;20064;-70
2021/04/16 22:09:56;;;;;;;10.55;2.28;;;5.80;62.90;;;;;;5895222;40;20053;-70
2021/04/16 22:14:04;;;;;;;5.00;1.83;;;5.70;62.90;;;;;;5891334;40;20089;-70
2021/04/16 22:18:23;;;;;;;6.13;2.25;;;5.70;63.10;;;;;;5893772;40;20073;-70
2021/04/16 22:22:35;;;;;;;8.82;2.60;;;7.00;64.20;;;;;;5887652;40;20093;-70
2021/04/16 22:26:41;;;;;;;7.93;2.88;;;5.60;63.60;;;;;;5891974;40;20048;-70
2021/04/16 22:30:49;;;;;;;5.15;1.92;;;5.50;63.90;;;;;;5894389;40;20046;-70
2021/04/16 22:34:54;;;;;;;6.25;2.10;;;5.60;63.30;;;;;;5903208;40;20052;-70
2021/04/16 22:39:00;;;;;;;5.57;2.30;;;5.50;63.30;;;;;;5893709;40;20136;-70
2021/04/16 22:43:22;;;;;;;6.82;2.22;;;5.50;63.20;;;;;;5891048;40;20057;-70
2021/04/16 22:47:33;;;;;;;9.40;2.70;;;5.50;63.60;;;;;;5890741;40;20074;-70
2021/04/16 22:51:41;;;;;;;5.05;1.85;;;5.40;63.40;;;;;;5893154;40;20053;-70
2021/04/16 22:55:46;;;;;;;9.13;2.35;;;5.40;63.30;;;;;;5893972;40;20405;-70
2021/04/16 22:59:52;;;;;;;7.55;2.65;;;5.30;63.50;;;;;;5895700;40;20062;-69
2021/04/16 23:04:09;;;;;;;5.75;2.35;;;5.20;63.50;;;;;;5900036;40;20041;-70
2021/04/16 23:08:20;;;;;;;6.65;2.22;;;5.20;63.80;;;;;;5892239;40;20053;-70
2021/04/16 23:12:31;;;;;;;6.40;2.20;;;5.20;64.40;;;;;;5897195;40;20055;-70
2021/04/16 23:16:42;;;;;;;7.63;2.55;;;5.10;63.80;;;;;;5895009;40;20041;-70
2021/04/16 23:20:53;;;;;;;6.82;2.30;;;5.00;63.80;;;;;;5902211;40;20049;-69
2021/04/16 23:24:59;;;;;;;4.78;2.25;;;5.00;64.20;;;;;;5894653;40;20046;-69
2021/04/16 23:29:23;;;;;;;6.47;2.13;;;4.80;64.00;;;;;;5891489;40;20159;-69
2021/04/16 23:34:04;;;;;;;5.60;2.15;;;4.80;64.20;;;;;;5879350;40;20488;-69
2021/04/16 23:38:09;;;;;;;9.53;2.40;;;4.70;64.30;;;;;;5900332;40;20053;-70
2021/04/16 23:42:25;;;;;;;7.30;2.50;;;4.60;64.00;;;;;;5902362;40;20041;-69
2021/04/16 23:46:29;;;;;;;8.05;2.40;;;4.60;64.40;;;;;;5892463;40;20056;-69
2021/04/16 23:50:33;;;;;;;9.90;1.80;;;4.50;64.30;;;;;;5893160;40;20053;-69
2021/04/16 23:54:38;;;;;;;7.18;2.30;;;4.40;64.20;;;;;;5891910;40;20045;-69
2021/04/16 23:58:43;;;;;;;8.02;2.60;;;4.40;64.30;;;;;;5892559;40;20037;-69
